createdAt,value
2023-04-18T00:01:53.635Z,9.50
2023-04-18T00:06:52.639Z,9.30
2023-04-18T00:11:51.124Z,9.30
2023-04-18T00:16:52.016Z,9.30
2023-04-18T00:21:53.453Z,9.10
2023-04-18T00:26:51.926Z,9.00
2023-04-18T00:31:51.787Z,9.10
2023-04-18T00:36:50.268Z,8.90
2023-04-18T00:42:04.170Z,8.90
2023-04-18T00:47:04.071Z,8.90
2023-04-18T00:52:02.691Z,8.80
2023-04-18T00:57:01.524Z,8.70
2023-04-18T01:02:00.824Z,8.60
2023-04-18T01:07:02.513Z,8.70
2023-04-18T01:12:02.122Z,8.50
2023-04-18T01:17:01.838Z,8.50
2023-04-18T01:22:01.668Z,8.40
2023-04-18T01:27:03.364Z,8.40
2023-04-18T01:32:02.935Z,8.50
2023-04-18T01:37:01.800Z,8.50
2023-04-18T01:42:02.457Z,8.50
2023-04-18T01:47:00.954Z,8.70
2023-04-18T01:51:59.517Z,8.40
2023-04-18T01:56:58.031Z,8.30
2023-04-18T02:01:58.000Z,8.30
2023-04-18T02:06:56.613Z,8.60
2023-04-18T02:11:56.572Z,8.30
2023-04-18T02:16:55.372Z,8.30
2023-04-18T02:21:55.548Z,8.20
2023-04-18T02:26:54.052Z,8.20
2023-04-18T02:31:52.597Z,8.10
2023-04-18T02:36:51.140Z,7.90
2023-04-18T02:41:51.014Z,7.90
2023-04-18T02:46:49.581Z,7.90
2023-04-18T02:51:48.566Z,7.90
2023-04-18T02:56:48.268Z,7.90
2023-04-18T03:02:13.509Z,8.10
2023-04-18T03:07:19.194Z,8.30
2023-04-18T03:12:19.844Z,8.20
2023-04-18T03:17:20.551Z,8.10
2023-04-18T03:22:21.015Z,8.10
2023-04-18T03:27:25.652Z,8.30
2023-04-18T03:32:26.180Z,8.30
2023-04-18T03:37:24.754Z,8.30
2023-04-18T03:42:26.167Z,8.30
2023-04-18T03:47:26.347Z,8.30
2023-04-18T03:52:29.819Z,8.40
2023-04-18T03:57:28.878Z,8.80
2023-04-18T04:02:28.951Z,8.40
2023-04-18T04:07:27.891Z,8.50
2023-04-18T04:12:27.423Z,8.50
2023-04-18T04:17:26.211Z,8.50
2023-04-18T04:22:26.246Z,8.40
2023-04-18T04:27:25.423Z,8.40
2023-04-18T04:32:25.548Z,8.30
2023-04-18T04:37:27.774Z,8.20
2023-04-18T04:42:41.407Z,8.20
2023-04-18T04:47:47.004Z,8.10
2023-04-18T04:52:46.950Z,8.30
2023-04-18T04:57:46.285Z,7.90
2023-04-18T05:03:02.643Z,7.60
2023-04-18T05:08:02.814Z,7.70
2023-04-18T05:13:01.372Z,7.60
2023-04-18T05:18:00.235Z,7.70
2023-04-18T05:22:58.747Z,7.90
2023-04-18T05:27:58.630Z,7.60
2023-04-18T05:32:57.218Z,7.80
2023-04-18T05:37:55.765Z,8.00
2023-04-18T05:42:54.263Z,8.20
2023-04-18T05:47:54.949Z,8.40
2023-04-18T05:52:53.542Z,8.50
2023-04-18T05:57:52.022Z,8.70
2023-04-18T06:02:51.336Z,8.90
2023-04-18T06:07:51.420Z,9.00
2023-04-18T06:12:49.902Z,9.40
2023-04-18T06:17:48.165Z,9.30
2023-04-18T06:22:46.703Z,9.40
2023-04-18T06:27:46.320Z,9.70
2023-04-18T06:32:44.953Z,10.30
2023-04-18T06:37:45.067Z,10.10
2023-04-18T06:42:45.387Z,10.10
2023-04-18T06:47:44.195Z,10.40
2023-04-18T06:52:44.786Z,10.60
2023-04-18T06:57:44.058Z,10.80
2023-04-18T07:02:44.208Z,11.00
2023-04-18T07:07:42.886Z,11.30
2023-04-18T07:12:41.396Z,11.40
2023-04-18T07:17:39.933Z,11.60
2023-04-18T07:22:39.779Z,11.70
2023-04-18T07:27:38.898Z,11.70
2023-04-18T07:32:37.517Z,11.80
2023-04-18T07:37:36.548Z,12.10
2023-04-18T07:42:36.394Z,12.10
2023-04-18T07:47:34.923Z,12.20
2023-04-18T07:52:33.438Z,12.40
2023-04-18T07:57:31.960Z,12.50
2023-04-18T08:02:31.983Z,12.60
2023-04-18T08:07:30.583Z,12.80
2023-04-18T08:12:29.081Z,13.00
2023-04-18T08:17:27.729Z,13.10
2023-04-18T08:22:27.649Z,13.20
2023-04-18T08:27:25.779Z,13.70
2023-04-18T08:32:24.349Z,14.00
2023-04-18T08:37:22.583Z,13.90
2023-04-18T08:42:24.501Z,13.80
2023-04-18T08:47:23.094Z,13.80
2023-04-18T08:52:24.038Z,13.70
2023-04-18T08:57:27.358Z,13.60
2023-04-18T09:02:39.228Z,13.20
2023-04-18T09:07:37.420Z,13.10
2023-04-18T09:12:45.021Z,12.90
2023-04-18T09:17:46.320Z,13.00
2023-04-18T09:22:48.201Z,13.10
2023-04-18T09:27:47.696Z,13.20
2023-04-18T09:33:00.127Z,13.20
2023-04-18T09:37:58.582Z,13.40
2023-04-18T09:42:59.002Z,13.60
2023-04-18T09:47:57.957Z,13.80
2023-04-18T09:52:56.970Z,14.00
2023-04-18T09:57:56.576Z,14.20
2023-04-18T10:02:59.586Z,14.30
2023-04-18T10:07:59.034Z,14.50
2023-04-18T10:12:59.017Z,14.70
2023-04-18T10:18:05.275Z,14.80
2023-04-18T10:23:43.069Z,14.90
2023-04-18T10:28:58.196Z,15.00
2023-04-18T10:39:03.390Z,15.20
2023-04-18T10:44:19.775Z,15.30
2023-04-18T10:49:21.329Z,15.30
2023-04-18T10:54:24.808Z,15.50
2023-04-18T10:59:25.489Z,15.50
2023-04-18T11:04:25.808Z,15.50
2023-04-18T11:09:24.345Z,15.50
2023-04-18T11:14:23.401Z,15.40
2023-04-18T11:19:23.873Z,15.40
2023-04-18T11:24:25.050Z,15.50
2023-04-18T11:29:24.508Z,15.50
2023-04-18T11:34:23.441Z,15.50
2023-04-18T11:39:23.328Z,15.70
2023-04-18T11:44:26.351Z,15.80
2023-04-18T11:49:29.090Z,15.90
2023-04-18T11:54:44.263Z,16.00
2023-04-18T11:59:50.025Z,16.00
2023-04-18T12:04:53.733Z,16.00
2023-04-18T12:09:54.098Z,16.10
2023-04-18T12:15:01.289Z,16.10
2023-04-18T12:20:03.010Z,16.20
2023-04-18T12:25:10.727Z,16.30
2023-04-18T12:30:12.198Z,16.30
2023-04-18T12:35:11.246Z,16.30
2023-04-18T12:40:11.521Z,16.20
2023-04-18T12:45:12.495Z,16.30
2023-04-18T12:50:12.651Z,16.30
2023-04-18T12:55:12.171Z,16.40
2023-04-18T13:00:13.943Z,16.50
2023-04-18T13:05:14.051Z,16.40
2023-04-18T13:10:14.471Z,16.40
2023-04-18T13:15:16.137Z,16.30
2023-04-18T13:20:14.763Z,16.10
2023-04-18T13:25:13.939Z,15.80
2023-04-18T13:30:14.276Z,15.60
2023-04-18T13:35:12.959Z,15.70
2023-04-18T13:40:11.724Z,15.80
2023-04-18T13:45:10.736Z,15.80
2023-04-18T13:50:11.533Z,15.80
2023-04-18T13:55:12.656Z,15.70
2023-04-18T14:00:14.347Z,15.80
2023-04-18T14:05:14.053Z,15.60
2023-04-18T14:10:12.978Z,15.70
2023-04-18T14:15:12.403Z,15.80
2023-04-18T14:20:11.291Z,15.80
2023-04-18T14:25:11.518Z,15.70
2023-04-18T14:30:11.324Z,15.70
2023-04-18T14:35:11.430Z,15.50
2023-04-18T14:40:12.696Z,15.40
2023-04-18T14:45:12.660Z,15.40
2023-04-18T14:50:12.616Z,15.40
2023-04-18T14:55:12.818Z,15.30
2023-04-18T15:00:12.954Z,15.40
2023-04-18T15:05:12.586Z,15.50
2023-04-18T15:10:15.430Z,15.40
2023-04-18T15:15:14.458Z,15.40
2023-04-18T15:20:13.408Z,15.40
2023-04-18T15:25:16.940Z,15.40
2023-04-18T15:30:15.615Z,15.40
2023-04-18T15:35:14.185Z,15.30
2023-04-18T15:40:16.531Z,15.20
2023-04-18T15:45:15.051Z,15.30
2023-04-18T15:50:13.604Z,15.20
2023-04-18T15:55:14.325Z,15.10
2023-04-18T16:00:16.465Z,15.00
2023-04-18T16:05:15.716Z,15.00
2023-04-18T16:10:15.619Z,15.00
2023-04-18T16:15:14.901Z,15.00
2023-04-18T16:20:14.078Z,15.00
2023-04-18T16:25:12.651Z,15.00
2023-04-18T16:30:13.408Z,15.00
2023-04-18T16:35:12.500Z,14.80
2023-04-18T16:40:11.265Z,14.70
2023-04-18T16:45:11.615Z,14.60
2023-04-18T16:50:10.910Z,14.40
2023-04-18T16:55:10.172Z,14.30
2023-04-18T17:00:10.618Z,14.10
2023-04-18T17:05:11.272Z,14.10
2023-04-18T17:10:11.059Z,14.00
2023-04-18T17:15:10.028Z,14.00
2023-04-18T17:20:10.822Z,13.90
2023-04-18T17:25:10.039Z,13.80
2023-04-18T17:30:09.592Z,13.80
2023-04-18T17:35:10.270Z,13.70
2023-04-18T17:40:11.863Z,13.70
2023-04-18T17:45:10.688Z,13.70
2023-04-18T17:50:11.896Z,13.60
2023-04-18T17:55:10.924Z,13.60
2023-04-18T18:00:12.221Z,13.50
2023-04-18T18:12:10.158Z,13.20
2023-04-18T18:17:08.870Z,13.20
2023-04-18T18:22:07.529Z,13.20
2023-04-18T18:27:06.454Z,13.10
2023-04-18T18:32:06.764Z,13.00
2023-04-18T18:37:05.630Z,12.90
2023-04-18T18:42:04.126Z,12.80
2023-04-18T18:47:02.790Z,12.70
2023-04-18T18:52:04.167Z,12.70
2023-04-18T18:57:03.291Z,12.50
2023-04-18T19:02:01.901Z,12.40
2023-04-18T19:07:00.586Z,12.30
2023-04-18T19:12:01.374Z,12.10
2023-04-18T19:16:59.884Z,12.00
2023-04-18T19:21:57.990Z,12.00
2023-04-18T19:26:57.137Z,11.90
2023-04-18T19:31:57.100Z,11.60
2023-04-18T19:36:55.663Z,11.60
2023-04-18T19:41:54.183Z,11.60
2023-04-18T19:46:53.788Z,11.60
2023-04-18T19:51:53.823Z,11.70
2023-04-18T19:56:52.620Z,11.80
2023-04-18T20:01:51.114Z,11.60
2023-04-18T20:06:49.701Z,11.60
2023-04-18T20:11:49.777Z,11.40
2023-04-18T20:16:50.055Z,11.20
2023-04-18T20:21:48.607Z,11.10
2023-04-18T20:26:48.486Z,11.00
2023-04-18T20:31:47.007Z,11.00
2023-04-18T20:36:47.020Z,10.80
2023-04-18T20:41:48.502Z,10.80
2023-04-18T20:46:48.400Z,10.50
2023-04-18T20:51:46.912Z,10.40
2023-04-18T20:56:45.360Z,10.50
2023-04-18T21:01:43.835Z,10.40
2023-04-18T21:06:43.712Z,10.30
2023-04-18T21:11:41.892Z,10.50
2023-04-18T21:16:40.594Z,10.30
2023-04-18T21:21:39.092Z,10.10
2023-04-18T21:26:38.919Z,10.10
2023-04-18T21:31:37.479Z,9.90
2023-04-18T21:36:35.990Z,9.80
2023-04-18T21:41:34.856Z,10.00
2023-04-18T21:46:34.720Z,10.00
2023-04-18T21:51:33.330Z,10.30
2023-04-18T21:56:31.894Z,10.60
2023-04-18T22:01:30.091Z,10.70
2023-04-18T22:06:31.136Z,10.60
2023-04-18T22:11:29.893Z,10.50
2023-04-18T22:16:29.119Z,10.10
2023-04-18T22:21:27.901Z,9.60
2023-04-18T22:26:27.718Z,9.30
2023-04-18T22:31:25.951Z,9.00
2023-04-18T22:36:24.450Z,8.90
2023-04-18T22:41:22.961Z,8.90
2023-04-18T22:46:23.098Z,8.80
2023-04-18T22:51:21.270Z,8.80
2023-04-18T22:56:19.891Z,8.90
2023-04-18T23:01:18.991Z,8.80
2023-04-18T23:06:19.204Z,8.50
2023-04-18T23:11:17.779Z,8.80
2023-04-18T23:16:15.957Z,8.40
2023-04-18T23:21:14.921Z,8.40
2023-04-18T23:26:16.607Z,8.50
2023-04-18T23:31:15.115Z,8.60
2023-04-18T23:36:14.047Z,8.40
2023-04-18T23:41:12.529Z,8.40
2023-04-18T23:46:13.459Z,9.00
2023-04-18T23:51:11.999Z,9.20
2023-04-18T23:56:10.136Z,9.50
